Time;durP1;ratioP1;P1;durP2;ratioP2;P2;SDS_P1;SDS_P2;PMS_P1;PMS_P2;Temp;Humidity;BMP_temperature;BMP_pressure;BME280_temperature;BME280_humidity;BME280_pressure;Samples;Min_cycle;Max_cycle;Signal;HPM_P1;HPM_P2
2024/01/09 00:01:26;;;;;;;8.40;6.47;;;10.10;84.10;;;;;;12701174;28;20031;-75
2024/01/09 00:07:28;;;;;;;25.40;23.77;;;9.80;84.00;;;;;;12703666;28;20347;-75
2024/01/09 00:13:29;;;;;;;13.57;12.25;;;9.70;83.60;;;;;;12686460;28;20031;-74
2024/01/09 00:19:33;;;;;;;9.35;7.35;;;9.70;83.30;;;;;;12708542;28;20038;-75
2024/01/09 00:25:35;;;;;;;11.55;10.40;;;9.50;83.10;;;;;;12696260;28;20046;-75
2024/01/09 00:31:36;;;;;;;24.70;23.05;;;9.40;83.00;;;;;;12714041;28;20032;-75
2024/01/09 00:37:38;;;;;;;14.02;12.82;;;9.30;82.80;;;;;;12695008;28;20031;-75
2024/01/09 00:43:40;;;;;;;16.10;14.73;;;9.30;82.70;;;;;;12695427;28;20032;-75
2024/01/09 00:49:45;;;;;;;14.00;12.82;;;9.40;83.00;;;;;;12678202;28;20028;-74
2024/01/09 00:55:47;;;;;;;14.15;13.05;;;9.30;82.80;;;;;;12713000;28;20046;-74
2024/01/09 01:01:50;;;;;;;19.00;17.63;;;9.20;82.60;;;;;;12712627;28;20036;-75
2024/01/09 01:07:51;;;;;;;16.60;15.30;;;9.20;82.40;;;;;;12711498;28;20031;-75
2024/01/09 01:13:53;;;;;;;17.70;16.45;;;9.20;82.30;;;;;;12712191;28;20027;-74
2024/01/09 01:19:55;;;;;;;21.35;19.95;;;9.00;82.20;;;;;;12711873;28;20348;-74
2024/01/09 01:25:56;;;;;;;23.80;22.15;;;9.00;82.40;;;;;;12711528;28;20027;-74
2024/01/09 01:31:58;;;;;;;25.60;23.85;;;9.00;82.50;;;;;;12692628;28;19918;-75
2024/01/09 01:37:59;;;;;;;26.27;24.27;;;9.00;82.50;;;;;;12692099;28;20050;-74
2024/01/09 01:44:01;;;;;;;27.10;25.42;;;8.90;82.30;;;;;;12692448;28;20042;-75
2024/01/09 01:50:02;;;;;;;27.27;25.48;;;8.90;82.10;;;;;;12710371;28;20321;-75
2024/01/09 01:56:04;;;;;;;32.38;30.38;;;8.80;81.90;;;;;;12709946;28;20027;-75
2024/01/09 02:02:06;;;;;;;31.70;29.58;;;8.60;82.10;;;;;;12709738;28;20028;-75
2024/01/09 02:08:09;;;;;;;29.35;27.75;;;8.50;82.30;;;;;;12709117;28;20475;-75
2024/01/09 02:14:11;;;;;;;35.65;33.55;;;8.30;82.30;;;;;;12707983;28;20027;-74
2024/01/09 02:20:12;;;;;;;32.17;30.38;;;8.30;82.40;;;;;;12708823;28;20031;-75
2024/01/09 02:26:19;;;;;;;28.00;26.20;;;8.40;82.40;;;;;;12708526;28;20054;-75
2024/01/09 02:32:21;;;;;;;34.83;32.88;;;8.50;82.10;;;;;;12708238;28;20035;-75
2024/01/09 02:38:23;;;;;;;34.67;32.65;;;8.40;82.00;;;;;;12689797;28;20039;-75
2024/01/09 02:44:24;;;;;;;29.83;27.98;;;8.40;81.80;;;;;;12705681;28;20038;-75
2024/01/09 02:50:26;;;;;;;33.53;31.20;;;8.30;81.70;;;;;;12706724;28;20023;-75
2024/01/09 02:56:29;;;;;;;29.95;27.88;;;8.30;81.50;;;;;;12706388;28;20035;-75
2024/01/09 03:02:31;;;;;;;30.33;28.63;;;8.30;81.70;;;;;;12706419;28;20032;-75
2024/01/09 03:08:32;;;;;;;31.77;29.60;;;8.20;81.80;;;;;;12687736;28;20433;-75
2024/01/09 03:14:37;;;;;;;28.50;26.73;;;8.00;82.40;;;;;;12705791;28;20027;-75
2024/01/09 03:20:40;;;;;;;25.25;23.52;;;8.00;82.30;;;;;;12687399;28;20028;-75
2024/01/09 03:26:41;;;;;;;27.73;25.83;;;8.00;82.20;;;;;;12687209;28;20039;-74
2024/01/09 03:32:43;;;;;;;25.90;24.20;;;8.10;82.20;;;;;;12686914;28;20038;-74
2024/01/09 03:38:45;;;;;;;25.73;23.90;;;8.10;82.00;;;;;;12705618;28;20427;-75
2024/01/09 03:44:48;;;;;;;43.72;41.42;;;8.10;82.00;;;;;;12704709;28;20432;-75
2024/01/09 03:50:49;;;;;;;19.77;18.33;;;8.00;82.20;;;;;;12686388;28;20038;-75
2024/01/09 03:56:51;;;;;;;21.30;19.80;;;8.00;82.40;;;;;;12704092;28;20035;-75
2024/01/09 04:02:52;;;;;;;19.80;18.48;;;7.90;82.30;;;;;;12704328;28;20039;-75
2024/01/09 04:08:54;;;;;;;21.48;20.08;;;7.90;82.40;;;;;;12704033;28;20031;-75
2024/01/09 04:14:55;;;;;;;22.20;20.90;;;8.00;82.80;;;;;;12685828;28;20020;-75
2024/01/09 04:20:57;;;;;;;27.95;26.38;;;8.00;82.80;;;;;;12685685;28;20039;-75
2024/01/09 04:26:58;;;;;;;22.92;21.45;;;8.20;82.80;;;;;;12703630;28;20031;-75
2024/01/09 04:33:00;;;;;;;28.58;25.38;;;8.20;82.90;;;;;;12685460;28;20429;-75
2024/01/09 04:39:01;;;;;;;22.15;20.70;;;8.20;82.70;;;;;;12703324;28;20044;-75
2024/01/09 04:45:03;;;;;;;24.42;22.98;;;8.00;82.90;;;;;;12685394;28;20044;-75
2024/01/09 04:51:05;;;;;;;20.70;19.38;;;8.10;83.00;;;;;;12703649;28;20031;-75
2024/01/09 04:57:07;;;;;;;24.77;23.08;;;8.20;83.30;;;;;;12702865;28;20470;-75
2024/01/09 05:03:08;;;;;;;24.60;23.10;;;8.20;83.30;;;;;;12703183;28;20028;-75
2024/01/09 05:09:10;;;;;;;23.30;22.00;;;8.20;83.30;;;;;;12676916;28;20039;-75
2024/01/09 05:15:12;;;;;;;26.80;25.10;;;8.20;83.20;;;;;;12711512;28;20444;-75
2024/01/09 05:21:13;;;;;;;37.80;36.00;;;8.30;83.30;;;;;;12693564;28;20035;-75
2024/01/09 05:27:15;;;;;;;31.73;29.98;;;8.50;83.50;;;;;;12710921;28;20034;-75
2024/01/09 05:33:16;;;;;;;30.73;28.95;;;8.50;83.30;;;;;;12710690;28;20389;-75
2024/01/09 05:39:18;;;;;;;29.15;27.25;;;8.60;82.80;;;;;;12710366;28;20038;-75
2024/01/09 05:45:20;;;;;;;27.00;25.50;;;8.70;82.80;;;;;;12710050;28;20038;-75
2024/01/09 05:51:21;;;;;;;27.20;25.45;;;8.60;83.20;;;;;;12709767;28;20031;-74
2024/01/09 05:57:23;;;;;;;30.05;28.20;;;8.60;83.10;;;;;;12709400;28;20398;-75
2024/01/09 06:03:24;;;;;;;25.95;24.35;;;8.60;82.70;;;;;;12709178;28;20035;-75
2024/01/09 06:09:26;;;;;;;37.53;35.30;;;8.70;82.70;;;;;;12708886;28;20039;-75
2024/01/09 06:15:28;;;;;;;18.88;17.52;;;8.80;83.10;;;;;;12689569;28;20036;-75
2024/01/09 06:21:30;;;;;;;23.13;21.25;;;8.90;82.70;;;;;;12708491;28;20031;-75
2024/01/09 06:27:31;;;;;;;15.98;14.60;;;9.20;82.60;;;;;;12707970;28;20035;-75
2024/01/09 06:33:34;;;;;;;22.25;20.65;;;9.30;83.00;;;;;;12707236;28;20034;-75
2024/01/09 06:39:38;;;;;;;44.25;41.80;;;9.20;82.20;;;;;;12707718;28;20024;-75
2024/01/09 06:45:44;;;;;;;22.40;20.60;;;9.10;82.10;;;;;;12707283;28;20062;-75
2024/01/09 06:51:53;;;;;;;22.40;20.52;;;8.90;82.00;;;;;;12688710;28;20038;-75
2024/01/09 06:57:57;;;;;;;26.20;24.10;;;8.80;81.80;;;;;;12695485;22;20480;-73
2024/01/09 07:04:00;;;;;;;26.73;24.73;;;8.90;81.50;;;;;;12654414;28;20035;-75
2024/01/09 07:10:04;;;;;;;25.55;23.10;;;8.90;81.30;;;;;;12654708;28;20059;-75
2024/01/09 07:16:07;;;;;;;22.85;21.00;;;8.90;81.10;;;;;;12655633;28;20020;-75
2024/01/09 07:22:09;;;;;;;27.00;24.88;;;8.90;81.30;;;;;;12653615;28;20046;-75
2024/01/09 07:28:11;;;;;;;36.70;34.53;;;8.90;81.30;;;;;;12653823;28;20040;-75
2024/01/09 07:34:14;;;;;;;42.15;39.78;;;9.00;81.90;;;;;;12652710;28;20040;-75
2024/01/09 07:40:15;;;;;;;33.15;30.95;;;9.10;82.90;;;;;;12654303;28;20028;-75
2024/01/09 07:46:20;;;;;;;43.17;40.55;;;9.30;82.70;;;;;;12654067;28;20437;-75
2024/01/09 07:52:22;;;;;;;35.33;33.03;;;9.40;81.80;;;;;;12652715;28;20052;-74
2024/01/09 07:58:24;;;;;;;43.75;41.13;;;9.40;82.50;;;;;;12647885;28;20056;-74
2024/01/09 08:04:26;;;;;;;38.30;35.90;;;9.50;83.10;;;;;;12603471;28;20029;-75
2024/01/09 08:10:28;;;;;;;37.67;35.33;;;9.50;82.40;;;;;;12603204;28;20028;-74
2024/01/09 08:16:29;;;;;;;28.05;25.95;;;9.50;82.40;;;;;;12603199;28;20032;-74
2024/01/09 08:22:31;;;;;;;11.35;10.13;;;9.30;82.10;;;;;;12602942;28;20452;-74
2024/01/09 08:28:32;;;;;;;19.00;17.52;;;9.30;82.50;;;;;;12601682;28;20445;-74
2024/01/09 08:34:34;;;;;;;24.38;22.73;;;9.00;81.30;;;;;;12601553;28;20036;-74
2024/01/09 08:40:36;;;;;;;18.30;16.63;;;8.80;82.70;;;;;;12610175;28;20302;-74
2024/01/09 08:46:38;;;;;;;18.52;17.05;;;9.00;83.10;;;;;;12630281;28;20029;-74
2024/01/09 08:52:39;;;;;;;17.15;15.73;;;9.00;83.30;;;;;;12611521;28;20449;-74
2024/01/09 08:58:41;;;;;;;16.77;15.38;;;9.20;83.90;;;;;;12611191;28;20464;-74
2024/01/09 09:04:42;;;;;;;18.17;16.73;;;9.10;82.90;;;;;;12609918;28;20028;-74
2024/01/09 09:10:44;;;;;;;16.77;15.48;;;8.90;83.50;;;;;;12610568;28;20040;-74
2024/01/09 09:16:45;;;;;;;25.55;23.83;;;9.00;84.20;;;;;;12610390;28;20029;-74
2024/01/09 09:22:47;;;;;;;13.50;12.23;;;9.10;84.10;;;;;;12610193;28;20437;-74
2024/01/09 09:28:50;;;;;;;35.35;33.05;;;9.20;84.60;;;;;;12609770;28;20028;-75
2024/01/09 09:34:52;;;;;;;33.17;31.13;;;9.20;83.90;;;;;;12591602;28;20032;-74
2024/01/09 09:40:53;;;;;;;37.25;35.17;;;9.20;84.50;;;;;;12610026;28;20040;-74
2024/01/09 09:46:58;;;;;;;28.42;26.52;;;9.40;84.30;;;;;;12602002;28;20039;-74
2024/01/09 09:53:00;;;;;;;96.30;91.90;;;9.50;83.70;;;;;;12658543;28;20024;-74
2024/01/09 09:59:02;;;;;;;45.08;42.17;;;9.00;83.40;;;;;;12658664;28;20036;-74
2024/01/09 10:05:14;;;;;;;31.55;29.65;;;8.90;83.70;;;;;;12657576;28;20364;-75
2024/01/09 10:11:16;;;;;;;33.17;30.98;;;9.00;84.80;;;;;;12656929;28;20031;-74
2024/01/09 10:17:18;;;;;;;45.25;42.70;;;9.20;85.00;;;;;;12656670;28;20373;-74
2024/01/09 10:23:21;;;;;;;27.27;25.77;;;9.10;85.00;;;;;;12656457;28;20034;-75
2024/01/09 10:29:23;;;;;;;44.00;41.53;;;9.20;84.80;;;;;;12656202;28;20464;-74
2024/01/09 10:35:27;;;;;;;35.72;33.53;;;9.20;85.10;;;;;;12672875;28;20047;-76
2024/01/09 10:41:29;;;;;;;38.85;36.50;;;9.20;84.90;;;;;;12655604;28;20028;-76
2024/01/09 10:47:32;;;;;;;52.08;48.88;;;9.40;85.10;;;;;;12655243;28;20055;-75
2024/01/09 10:53:36;;;;;;;32.90;30.70;;;9.50;84.80;;;;;;12656195;28;20479;-75
2024/01/09 10:59:39;;;;;;;32.70;30.73;;;9.30;83.70;;;;;;12654599;28;20032;-75
2024/01/09 11:05:41;;;;;;;78.00;74.13;;;9.50;85.20;;;;;;12654999;28;20031;-76
2024/01/09 11:11:44;;;;;;;57.55;54.35;;;9.50;84.50;;;;;;12655274;28;20032;-75
2024/01/09 11:17:50;;;;;;;39.13;36.70;;;9.60;84.60;;;;;;12655207;28;20032;-75
2024/01/09 11:23:56;;;;;;;28.50;26.52;;;9.70;84.30;;;;;;12654889;28;20035;-75
2024/01/09 11:30:01;;;;;;;28.65;26.80;;;9.80;83.60;;;;;;12653587;28;20107;-75
2024/01/09 11:36:06;;;;;;;41.33;38.67;;;9.80;84.20;;;;;;12654634;28;20023;-75
2024/01/09 11:42:10;;;;;;;131.73;125.93;;;10.00;83.30;;;;;;12654179;28;20024;-75
2024/01/09 11:48:12;;;;;;;96.00;91.53;;;10.00;82.90;;;;;;12653982;28;20035;-74
2024/01/09 11:54:13;;;;;;;20.75;19.00;;;10.00;83.20;;;;;;12652932;28;20040;-74
2024/01/09 12:00:17;;;;;;;34.63;32.47;;;10.20;83.70;;;;;;12653645;28;20437;-75
2024/01/09 12:06:25;;;;;;;32.25;30.25;;;10.10;82.90;;;;;;12653526;28;20024;-75
2024/01/09 12:12:26;;;;;;;59.15;55.90;;;10.00;81.50;;;;;;12653070;28;20433;-75
2024/01/09 12:18:28;;;;;;;32.92;30.90;;;9.90;81.00;;;;;;12663557;28;20031;-75
2024/01/09 12:24:50;;;;;;;23.67;21.67;;;9.90;82.10;;;;;;12663392;28;20356;-75
2024/01/09 12:31:06;;;;;;;41.38;39.13;;;10.10;82.20;;;;;;12662845;28;20041;-75
2024/01/09 12:37:08;;;;;;;49.92;47.33;;;10.10;81.20;;;;;;12662944;28;20033;-75
2024/01/09 12:43:11;;;;;;;42.10;39.75;;;9.80;81.30;;;;;;12662490;28;20024;-75
2024/01/09 12:49:13;;;;;;;41.67;39.38;;;9.80;83.20;;;;;;12661949;28;20039;-75
2024/01/09 12:55:18;;;;;;;24.98;23.38;;;9.80;83.60;;;;;;12660657;28;20138;-75
2024/01/09 13:01:19;;;;;;;20.40;18.55;;;10.20;84.50;;;;;;12660391;28;20349;-75
2024/01/09 13:07:21;;;;;;;15.32;14.05;;;10.30;83.00;;;;;;12661238;28;20028;-75
2024/01/09 13:13:23;;;;;;;27.67;25.70;;;10.30;83.70;;;;;;12660065;28;20046;-75
2024/01/09 13:19:25;;;;;;;25.60;24.10;;;10.60;84.30;;;;;;12660646;28;20032;-74
2024/01/09 13:25:27;;;;;;;55.38;52.58;;;10.70;84.80;;;;;;12660439;28;20024;-74
2024/01/09 13:31:29;;;;;;;15.60;14.48;;;10.80;84.40;;;;;;12660124;28;20043;-75
2024/01/09 13:37:31;;;;;;;57.42;54.25;;;11.20;84.80;;;;;;12659824;28;20035;-75
2024/01/09 13:43:32;;;;;;;17.67;16.23;;;11.30;84.90;;;;;;12659540;28;20020;-75
2024/01/09 13:49:34;;;;;;;16.45;15.25;;;11.30;85.00;;;;;;12659248;28;20028;-75
2024/01/09 13:55:36;;;;;;;20.75;19.00;;;11.00;83.90;;;;;;12658986;28;20352;-75
2024/01/09 14:01:37;;;;;;;15.70;14.32;;;11.00;85.00;;;;;;12658605;28;20035;-74
2024/01/09 14:07:41;;;;;;;23.15;21.67;;;10.60;81.30;;;;;;12658258;28;20054;-75
2024/01/09 14:13:43;;;;;;;24.42;22.85;;;10.70;83.80;;;;;;12656926;28;20035;-74
2024/01/09 14:19:45;;;;;;;24.77;23.23;;;10.70;83.50;;;;;;12657779;28;20035;-74
2024/01/09 14:25:47;;;;;;;45.03;42.65;;;11.10;84.90;;;;;;12657525;28;20043;-75
2024/01/09 14:31:49;;;;;;;41.30;39.13;;;11.50;84.10;;;;;;12673466;28;20449;-75
2024/01/09 14:37:50;;;;;;;24.08;22.30;;;11.80;84.60;;;;;;12655889;28;20032;-75
2024/01/09 14:43:52;;;;;;;12.00;10.80;;;12.00;83.10;;;;;;12656675;28;20108;-75
2024/01/09 14:49:54;;;;;;;17.92;16.65;;;12.20;84.20;;;;;;12655329;28;20036;-74
2024/01/09 14:55:55;;;;;;;34.13;32.45;;;12.00;84.50;;;;;;12662673;22;20029;-74
2024/01/09 15:02:04;;;;;;;46.00;43.88;;;11.70;85.00;;;;;;12698809;27;20467;-75
2024/01/09 15:08:06;;;;;;;46.13;43.83;;;11.60;85.20;;;;;;12684268;28;20428;-75
2024/01/09 15:14:08;;;;;;;41.50;39.15;;;11.50;85.10;;;;;;12695677;28;20028;-75
2024/01/09 15:20:10;;;;;;;37.92;35.65;;;11.50;84.70;;;;;;12689613;28;20433;-74
2024/01/09 15:26:12;;;;;;;35.95;33.85;;;11.50;85.00;;;;;;12695620;28;20035;-75
2024/01/09 15:32:35;;;;;;;21.45;19.98;;;11.40;84.30;;;;;;12679044;28;20032;-75
2024/01/09 15:38:37;;;;;;;18.83;17.48;;;11.00;84.20;;;;;;12696200;28;20028;-75
2024/01/09 15:44:39;;;;;;;21.42;19.85;;;10.70;84.30;;;;;;12696077;28;20035;-75
2024/01/09 15:50:40;;;;;;;92.18;88.05;;;10.50;83.90;;;;;;12695759;28;20043;-75
2024/01/09 15:56:42;;;;;;;32.30;29.95;;;10.50;83.60;;;;;;12695974;28;20030;-75
2024/01/09 16:02:44;;;;;;;23.48;21.73;;;10.50;84.20;;;;;;12695196;28;20314;-75
2024/01/09 16:08:46;;;;;;;42.38;39.95;;;10.40;84.10;;;;;;12687382;28;20032;-75
2024/01/09 16:14:47;;;;;;;35.13;32.95;;;10.40;84.00;;;;;;12659711;28;20028;-75
2024/01/09 16:20:49;;;;;;;34.10;31.92;;;10.30;84.10;;;;;;12659662;28;20043;-75
2024/01/09 16:26:51;;;;;;;37.30;34.72;;;10.20;84.10;;;;;;12659149;28;20437;-75
2024/01/09 16:32:53;;;;;;;11.45;9.07;;;10.20;83.70;;;;;;12660072;28;20432;-76
2024/01/09 16:38:55;;;;;;;40.15;37.58;;;10.10;83.90;;;;;;12659648;28;20043;-75
2024/01/09 16:44:56;;;;;;;50.75;47.70;;;10.10;83.70;;;;;;12659590;28;20028;-75
2024/01/09 16:50:58;;;;;;;32.75;30.85;;;9.90;83.10;;;;;;12659336;28;20348;-75
2024/01/09 16:57:00;;;;;;;50.30;47.35;;;9.80;83.70;;;;;;12658400;28;20036;-75
2024/01/09 17:03:08;;;;;;;46.97;44.40;;;9.60;83.40;;;;;;12657476;28;20027;-76
2024/01/09 17:09:11;;;;;;;26.83;25.33;;;9.40;83.00;;;;;;12640367;28;20024;-76
2024/01/09 17:15:13;;;;;;;22.17;20.48;;;9.30;83.50;;;;;;12658739;28;20035;-75
2024/01/09 17:21:51;;;;;;;40.65;38.13;;;9.40;83.60;;;;;;12656742;28;20321;-76
2024/01/09 17:27:53;;;;;;;24.40;22.95;;;9.20;82.70;;;;;;12656813;28;20066;-75
2024/01/09 17:33:54;;;;;;;30.92;28.92;;;9.10;83.00;;;;;;12657159;28;20036;-75
2024/01/09 17:39:56;;;;;;;28.23;26.23;;;9.30;83.40;;;;;;12656809;28;20032;-75
2024/01/09 17:45:59;;;;;;;44.30;41.63;;;9.60;83.50;;;;;;12655512;28;20024;-75
2024/01/09 17:52:02;;;;;;;37.70;35.42;;;9.70;83.20;;;;;;12656326;28;20036;-75
2024/01/09 17:58:04;;;;;;;45.63;42.67;;;9.60;83.00;;;;;;12655892;28;20036;-75
2024/01/09 18:04:07;;;;;;;25.70;23.75;;;9.50;82.80;;;;;;12655415;28;20032;-75
2024/01/09 18:10:09;;;;;;;21.67;19.92;;;9.40;82.90;;;;;;12655486;28;20036;-75
2024/01/09 18:16:11;;;;;;;35.17;33.10;;;9.40;82.70;;;;;;12654745;28;20040;-75
2024/01/09 18:22:13;;;;;;;23.50;21.75;;;9.30;82.60;;;;;;12654883;28;20028;-75
2024/01/09 18:28:16;;;;;;;29.90;28.00;;;9.30;82.40;;;;;;12654805;28;20028;-75
2024/01/09 18:34:20;;;;;;;22.77;21.08;;;9.30;82.50;;;;;;12653941;28;20051;-75
2024/01/09 18:40:24;;;;;;;25.40;20.25;;;9.20;82.60;;;;;;12654302;28;20425;-75
2024/01/09 18:46:26;;;;;;;30.48;28.65;;;9.20;82.70;;;;;;12654199;28;20028;-75
2024/01/09 18:52:51;;;;;;;22.77;21.27;;;9.20;82.70;;;;;;12652820;28;20020;-75
2024/01/09 18:58:53;;;;;;;36.05;33.83;;;9.20;82.40;;;;;;12652559;28;20020;-75
2024/01/09 19:04:55;;;;;;;24.20;22.55;;;9.00;81.90;;;;;;12653734;28;20035;-75
2024/01/09 19:10:57;;;;;;;27.33;25.40;;;8.90;82.20;;;;;;12653559;28;20042;-75
2024/01/09 19:16:58;;;;;;;26.15;24.45;;;8.90;82.20;;;;;;12653402;28;20035;-75
2024/01/09 19:23:01;;;;;;;27.55;25.55;;;8.80;82.00;;;;;;12652316;28;20047;-75
2024/01/09 19:29:04;;;;;;;27.33;25.52;;;8.80;81.90;;;;;;12653138;28;20036;-73
2024/01/09 19:35:07;;;;;;;28.65;26.67;;;8.70;81.70;;;;;;12653006;28;20039;-73
2024/01/09 19:41:15;;;;;;;28.55;26.67;;;8.50;81.80;;;;;;12635049;28;20059;-73
2024/01/09 19:47:18;;;;;;;25.90;23.50;;;8.20;82.10;;;;;;12660518;28;20421;-74
2024/01/09 19:53:20;;;;;;;22.55;20.85;;;8.30;81.90;;;;;;12662171;28;20032;-74
2024/01/09 19:59:22;;;;;;;22.67;20.90;;;8.30;81.40;;;;;;12661602;28;20043;-74
2024/01/09 20:05:24;;;;;;;25.77;23.58;;;8.40;80.90;;;;;;12660427;28;20024;-74
2024/01/09 20:11:27;;;;;;;21.15;19.17;;;8.20;80.80;;;;;;12661198;28;20036;-74
2024/01/09 20:17:29;;;;;;;20.77;18.98;;;8.10;80.80;;;;;;12658798;28;20028;-73
2024/01/09 20:23:31;;;;;;;22.40;20.50;;;8.20;80.70;;;;;;12660758;28;20445;-73
2024/01/09 20:29:32;;;;;;;23.50;21.40;;;8.20;80.40;;;;;;12660514;28;20368;-73
2024/01/09 20:35:34;;;;;;;19.90;18.00;;;8.20;80.20;;;;;;12660128;28;20032;-74
2024/01/09 20:41:40;;;;;;;20.13;18.42;;;8.20;80.10;;;;;;12659877;28;20355;-73
2024/01/09 20:47:41;;;;;;;23.80;21.30;;;8.10;80.10;;;;;;12659782;28;20028;-74
2024/01/09 20:53:43;;;;;;;23.63;21.50;;;8.10;80.00;;;;;;12659312;28;20414;-74
2024/01/09 20:59:46;;;;;;;20.83;18.83;;;8.10;80.00;;;;;;12658665;28;20047;-74
2024/01/09 21:05:48;;;;;;;22.08;19.92;;;8.00;80.20;;;;;;12658686;28;20044;-74
2024/01/09 21:11:51;;;;;;;22.67;20.75;;;7.90;79.90;;;;;;12658467;28;20377;-74
2024/01/09 21:18:15;;;;;;;16.95;12.93;;;7.70;79.90;;;;;;12658059;28;20047;-73
2024/01/09 21:24:17;;;;;;;15.98;11.77;;;7.50;79.80;;;;;;12657887;28;20024;-73
2024/01/09 21:30:21;;;;;;;14.52;11.10;;;7.40;79.70;;;;;;12656154;28;20040;-73
2024/01/09 21:36:22;;;;;;;14.48;11.85;;;7.40;79.60;;;;;;12656116;28;20428;-73
2024/01/09 21:42:24;;;;;;;13.25;10.43;;;7.40;79.40;;;;;;12655707;28;20024;-73
2024/01/09 21:48:26;;;;;;;15.38;11.93;;;7.40;79.40;;;;;;12655560;28;20040;-73
2024/01/09 21:54:27;;;;;;;14.02;10.88;;;7.30;79.30;;;;;;12655131;28;20035;-73
2024/01/09 22:00:29;;;;;;;13.20;9.50;;;7.20;79.40;;;;;;12655953;28;20028;-73
2024/01/09 22:06:31;;;;;;;14.95;11.05;;;7.20;79.40;;;;;;12655317;28;20028;-73
2024/01/09 22:12:32;;;;;;;14.20;10.52;;;7.10;79.30;;;;;;12656291;28;20020;-73
2024/01/09 22:18:34;;;;;;;14.38;11.93;;;7.10;79.30;;;;;;12655254;28;20036;-73
2024/01/09 22:24:36;;;;;;;15.90;11.40;;;7.00;79.20;;;;;;12655045;28;20031;-73
2024/01/09 22:30:48;;;;;;;16.65;12.88;;;6.90;79.20;;;;;;12653638;28;20047;-73
2024/01/09 22:36:49;;;;;;;20.13;15.68;;;7.00;79.90;;;;;;12654620;28;20039;-75
2024/01/09 22:42:51;;;;;;;18.67;14.90;;;7.20;80.40;;;;;;12654454;28;20035;-76
2024/01/09 22:49:36;;;;;;;20.30;15.00;;;7.00;80.10;;;;;;12654220;28;20463;-77
2024/01/09 22:55:38;;;;;;;25.42;16.92;;;6.90;79.90;;;;;;12654068;28;20032;-77
2024/01/09 23:01:45;;;;;;;17.13;13.43;;;6.70;79.90;;;;;;12611351;22;20048;-77
2024/01/09 23:07:49;;;;;;;22.10;16.42;;;6.80;80.20;;;;;;12603610;28;20039;-77
2024/01/09 23:13:52;;;;;;;17.27;14.05;;;6.80;80.00;;;;;;12603566;28;20051;-77
2024/01/09 23:19:54;;;;;;;18.13;13.65;;;6.70;79.80;;;;;;12605312;28;20041;-77
2024/01/09 23:25:55;;;;;;;15.38;12.70;;;6.80;80.30;;;;;;12613149;28;20024;-77
2024/01/09 23:31:57;;;;;;;24.15;17.77;;;6.70;80.40;;;;;;12612851;28;20032;-77
2024/01/09 23:37:59;;;;;;;19.60;12.93;;;6.70;80.20;;;;;;12612475;28;20327;-77
2024/01/09 23:44:00;;;;;;;16.92;15.02;;;6.70;80.00;;;;;;12611067;28;20033;-77
2024/01/09 23:50:03;;;;;;;17.75;16.00;;;6.50;79.90;;;;;;12611913;28;20044;-77
2024/01/09 23:56:05;;;;;;;20.85;18.75;;;6.50;79.90;;;;;;12610878;28;20033;-77
